Time;durP1;ratioP1;P1;durP2;ratioP2;P2;SDS_P1;SDS_P2;PMS_P1;PMS_P2;Temp;Humidity;BMP_temperature;BMP_pressure;BME280_temperature;BME280_humidity;BME280_pressure;Samples;Min_cycle;Max_cycle;Signal;HPM_P1;HPM_P2
2024/01/23 00:02:07;;;;;;;141.70;38.50;;;;;;;;;;4914862;28;20247;-74
2024/01/23 00:04:32;;;;;;;141.30;37.77;;;;;;;;;;4915788;29;20321;-74
2024/01/23 00:06:58;;;;;;;149.63;38.37;;;;;;;;;;4922031;28;20224;-74
2024/01/23 00:09:23;;;;;;;144.60;37.87;;;;;;;;;;4913102;29;20287;-74
2024/01/23 00:11:48;;;;;;;129.17;35.93;;;;;;;;;;4912823;29;20232;-74
2024/01/23 00:14:14;;;;;;;143.63;36.03;;;;;;;;;;4913303;29;20256;-74
2024/01/23 00:16:39;;;;;;;147.03;36.77;;;;;;;;;;4908056;29;20729;-73
2024/01/23 00:19:04;;;;;;;135.27;35.17;;;;;;;;;;4914486;28;20238;-73
2024/01/23 00:21:29;;;;;;;127.63;33.43;;;;;;;;;;4910703;29;20731;-71
2024/01/23 00:23:55;;;;;;;138.70;36.03;;;;;;;;;;4914987;29;20228;-74
2024/01/23 00:26:20;;;;;;;135.83;36.67;;;;;;;;;;4912282;29;20329;-74
2024/01/23 00:28:46;;;;;;;134.40;35.87;;;;;;;;;;4918900;29;20260;-73
2024/01/23 00:31:11;;;;;;;122.60;33.43;;;;;;;;;;4925257;28;20235;-74
2024/01/23 00:33:36;;;;;;;132.20;34.23;;;;;;;;;;4921217;29;20721;-74
2024/01/23 00:36:02;;;;;;;124.63;33.37;;;;;;;;;;4921794;29;20233;-74
2024/01/23 00:38:27;;;;;;;129.17;34.43;;;;;;;;;;4906308;28;20623;-74
2024/01/23 00:40:52;;;;;;;121.10;33.57;;;;;;;;;;4913704;29;20280;-74
2024/01/23 00:43:18;;;;;;;128.20;33.47;;;;;;;;;;4909492;29;20284;-74
2024/01/23 00:45:43;;;;;;;126.00;34.90;;;;;;;;;;4909157;29;20260;-73
2024/01/23 00:48:09;;;;;;;128.40;34.80;;;;;;;;;;4939711;28;20252;-74
2024/01/23 00:50:34;;;;;;;118.43;34.33;;;;;;;;;;4914757;29;20277;-73
2024/01/23 00:52:59;;;;;;;126.97;34.10;;;;;;;;;;4905481;29;20256;-74
2024/01/23 00:55:25;;;;;;;123.77;34.23;;;;;;;;;;4921780;29;20233;-74
2024/01/23 00:57:50;;;;;;;128.13;34.53;;;;;;;;;;4903862;29;20229;-74
2024/01/23 01:00:16;;;;;;;124.97;33.07;;;;;;;;;;4906106;28;20741;-74
2024/01/23 01:02:41;;;;;;;123.53;34.43;;;;;;;;;;4919947;29;20245;-74
2024/01/23 01:05:07;;;;;;;132.10;34.27;;;;;;;;;;4919379;29;20252;-73
2024/01/23 01:07:32;;;;;;;124.50;33.10;;;;;;;;;;4929719;29;20688;-74
2024/01/23 01:09:57;;;;;;;130.37;34.30;;;;;;;;;;4909820;29;20755;-74
2024/01/23 01:12:23;;;;;;;137.77;35.87;;;;;;;;;;4921653;28;20715;-74
2024/01/23 01:14:48;;;;;;;129.87;33.20;;;;;;;;;;4915102;29;20743;-74
2024/01/23 01:17:14;;;;;;;141.43;34.27;;;;;;;;;;4913132;28;20237;-74
2024/01/23 01:19:39;;;;;;;141.93;36.73;;;;;;;;;;4935757;28;20760;-74
2024/01/23 01:22:05;;;;;;;137.03;34.80;;;;;;;;;;4936446;29;20770;-74
2024/01/23 01:24:31;;;;;;;123.53;33.93;;;;;;;;;;4922097;29;20239;-75
2024/01/23 01:26:56;;;;;;;148.63;37.10;;;;;;;;;;4902993;29;20619;-74
2024/01/23 01:29:21;;;;;;;137.27;35.10;;;;;;;;;;4906995;29;20363;-73
2024/01/23 01:31:47;;;;;;;148.30;36.00;;;;;;;;;;4916766;29;20252;-74
2024/01/23 01:34:12;;;;;;;155.73;37.00;;;;;;;;;;4930474;29;20324;-73
2024/01/23 01:36:38;;;;;;;163.83;38.17;;;;;;;;;;4906844;29;20228;-73
2024/01/23 01:39:03;;;;;;;142.87;36.63;;;;;;;;;;4922215;29;20260;-73
2024/01/23 01:41:28;;;;;;;158.40;38.57;;;;;;;;;;4907830;29;20719;-74
2024/01/23 01:43:54;;;;;;;172.03;39.27;;;;;;;;;;4913346;29;20233;-74
2024/01/23 01:46:19;;;;;;;164.07;37.70;;;;;;;;;;4901590;28;20232;-74
2024/01/23 01:48:45;;;;;;;169.27;39.00;;;;;;;;;;4942578;28;20320;-73
2024/01/23 01:51:11;;;;;;;166.60;40.07;;;;;;;;;;4919200;29;20260;-74
2024/01/23 01:53:36;;;;;;;174.47;40.10;;;;;;;;;;4929457;29;20222;-75
2024/01/23 01:56:05;;;;;;;166.53;40.70;;;;;;;;;;4908119;29;20291;-74
2024/01/23 01:58:30;;;;;;;149.53;37.43;;;;;;;;;;4919481;29;20229;-74
2024/01/23 02:00:56;;;;;;;165.80;39.33;;;;;;;;;;4913061;28;21006;-73
2024/01/23 02:03:21;;;;;;;151.83;38.87;;;;;;;;;;4918092;29;20337;-74
2024/01/23 02:05:47;;;;;;;155.13;39.13;;;;;;;;;;4912132;29;20958;-73
2024/01/23 02:08:12;;;;;;;160.23;36.53;;;;;;;;;;4919309;29;20233;-74
2024/01/23 02:10:37;;;;;;;153.43;36.87;;;;;;;;;;4927576;29;20707;-75
2024/01/23 02:13:04;;;;;;;143.90;36.53;;;;;;;;;;4918757;28;20237;-73
2024/01/23 02:15:30;;;;;;;142.23;36.07;;;;;;;;;;4918394;29;20253;-73
2024/01/23 02:17:56;;;;;;;144.43;37.37;;;;;;;;;;4919269;29;20233;-74
2024/01/23 02:20:21;;;;;;;138.13;37.40;;;;;;;;;;4919278;28;20268;-73
2024/01/23 02:22:46;;;;;;;126.73;36.17;;;;;;;;;;4923239;29;20351;-73
2024/01/23 02:25:14;;;;;;;124.30;34.60;;;;;;;;;;4935343;29;20271;-75
2024/01/23 02:27:39;;;;;;;134.87;34.47;;;;;;;;;;4913518;29;20242;-75
2024/01/23 02:30:04;;;;;;;116.27;31.63;;;;;;;;;;4907784;29;20236;-74
2024/01/23 02:32:30;;;;;;;134.67;34.87;;;;;;;;;;4936125;28;20722;-74
2024/01/23 02:34:55;;;;;;;111.80;32.37;;;;;;;;;;4903932;29;20315;-72
2024/01/23 02:37:20;;;;;;;112.77;32.60;;;;;;;;;;4901630;28;20241;-71
2024/01/23 02:39:46;;;;;;;115.10;31.73;;;;;;;;;;4938255;29;20232;-71
2024/01/23 02:42:11;;;;;;;121.70;34.40;;;;;;;;;;4910265;28;20249;-71
2024/01/23 02:44:37;;;;;;;122.07;32.80;;;;;;;;;;4919698;29;20261;-71
2024/01/23 02:47:03;;;;;;;118.67;32.90;;;;;;;;;;4940430;28;20259;-70
2024/01/23 02:49:28;;;;;;;105.43;32.17;;;;;;;;;;4937873;28;20652;-71
2024/01/23 02:51:53;;;;;;;123.73;32.83;;;;;;;;;;4914217;29;20244;-70
2024/01/23 02:54:19;;;;;;;120.93;34.17;;;;;;;;;;4910573;29;20252;-70
2024/01/23 02:56:44;;;;;;;120.53;31.40;;;;;;;;;;4916330;28;20588;-74
2024/01/23 02:59:10;;;;;;;116.23;32.93;;;;;;;;;;4907645;29;20232;-73
2024/01/23 03:01:35;;;;;;;110.80;31.40;;;;;;;;;;4935942;28;20817;-73
2024/01/23 03:04:00;;;;;;;112.70;32.53;;;;;;;;;;4901914;29;20217;-73
2024/01/23 03:06:26;;;;;;;100.87;31.87;;;;;;;;;;4918565;29;20238;-72
2024/01/23 03:08:51;;;;;;;123.20;32.87;;;;;;;;;;4920480;29;20230;-72
2024/01/23 03:11:16;;;;;;;121.77;34.60;;;;;;;;;;4917354;29;20280;-73
2024/01/23 03:13:42;;;;;;;122.13;33.70;;;;;;;;;;4917630;29;20221;-74
2024/01/23 03:16:07;;;;;;;113.53;32.40;;;;;;;;;;4926529;28;20232;-74
2024/01/23 03:18:32;;;;;;;120.90;32.67;;;;;;;;;;4909548;29;20234;-74
2024/01/23 03:20:58;;;;;;;111.90;31.53;;;;;;;;;;4905247;29;20252;-70
2024/01/23 03:23:23;;;;;;;109.53;31.10;;;;;;;;;;4902982;28;20694;-70
2024/01/23 03:25:48;;;;;;;116.43;33.60;;;;;;;;;;4936684;28;20225;-71
2024/01/23 03:28:14;;;;;;;125.43;32.77;;;;;;;;;;4904933;28;20241;-70
2024/01/23 03:30:39;;;;;;;135.67;35.10;;;;;;;;;;4918415;28;20225;-69
2024/01/23 03:33:04;;;;;;;136.23;35.30;;;;;;;;;;4917858;29;20229;-70
2024/01/23 03:35:29;;;;;;;127.17;34.67;;;;;;;;;;4920423;29;20751;-70
2024/01/23 03:37:55;;;;;;;134.40;33.50;;;;;;;;;;4915836;29;20225;-70
2024/01/23 03:40:20;;;;;;;170.97;38.33;;;;;;;;;;4915663;29;20233;-70
2024/01/23 03:42:46;;;;;;;171.07;39.73;;;;;;;;;;4928572;29;20232;-70
2024/01/23 03:45:11;;;;;;;167.97;38.00;;;;;;;;;;4902466;29;20839;-69
2024/01/23 03:47:36;;;;;;;152.40;37.40;;;;;;;;;;4929418;29;20495;-70
2024/01/23 03:50:02;;;;;;;154.00;36.03;;;;;;;;;;4922089;29;20319;-71
2024/01/23 03:52:28;;;;;;;183.80;36.57;;;;;;;;;;4922770;29;20237;-71
2024/01/23 03:54:53;;;;;;;164.87;35.53;;;;;;;;;;4920204;29;20233;-70
2024/01/23 03:57:19;;;;;;;142.13;34.07;;;;;;;;;;4927273;28;21060;-70
2024/01/23 03:59:44;;;;;;;141.00;33.70;;;;;;;;;;4919700;29;20982;-70
2024/01/23 04:02:10;;;;;;;117.53;30.73;;;;;;;;;;4937860;28;20745;-71
2024/01/23 04:04:36;;;;;;;108.30;28.60;;;;;;;;;;4935514;28;20767;-71
2024/01/23 04:07:02;;;;;;;123.10;31.23;;;;;;;;;;4917061;28;20229;-71
2024/01/23 04:09:27;;;;;;;124.33;32.13;;;;;;;;;;4921006;29;20222;-70
2024/01/23 04:11:52;;;;;;;135.63;34.20;;;;;;;;;;4936618;29;20264;-70
2024/01/23 04:14:18;;;;;;;139.40;32.73;;;;;;;;;;4937483;28;20731;-71
2024/01/23 04:16:43;;;;;;;127.53;32.30;;;;;;;;;;4919060;29;20232;-71
2024/01/23 04:19:08;;;;;;;142.03;32.90;;;;;;;;;;4919175;29;20327;-70
2024/01/23 04:21:34;;;;;;;135.37;32.50;;;;;;;;;;4930094;29;20329;-70
2024/01/23 04:23:59;;;;;;;140.40;32.83;;;;;;;;;;4910742;29;20221;-70
2024/01/23 04:26:25;;;;;;;146.17;31.90;;;;;;;;;;4917710;29;20245;-70
2024/01/23 04:28:50;;;;;;;132.53;31.23;;;;;;;;;;4918781;29;20244;-69
2024/01/23 04:31:16;;;;;;;129.70;30.17;;;;;;;;;;4903872;29;20244;-70
2024/01/23 04:33:41;;;;;;;124.67;33.07;;;;;;;;;;4919721;29;20233;-71
2024/01/23 04:36:06;;;;;;;159.53;32.80;;;;;;;;;;4917780;29;20674;-71
2024/01/23 04:38:32;;;;;;;177.63;33.50;;;;;;;;;;4919503;29;20229;-70
2024/01/23 04:40:57;;;;;;;192.47;34.80;;;;;;;;;;4919409;29;20236;-70
2024/01/23 04:43:22;;;;;;;156.87;32.30;;;;;;;;;;4921724;29;20320;-70
2024/01/23 04:45:48;;;;;;;169.50;34.73;;;;;;;;;;4919757;29;20236;-71
2024/01/23 04:48:13;;;;;;;134.27;32.43;;;;;;;;;;4937704;28;20690;-71
2024/01/23 04:50:38;;;;;;;158.37;33.27;;;;;;;;;;4919499;29;20252;-72
2024/01/23 04:53:04;;;;;;;151.80;33.33;;;;;;;;;;4929341;29;20226;-73
2024/01/23 04:55:29;;;;;;;138.37;32.17;;;;;;;;;;4910357;29;20360;-73
2024/01/23 04:57:54;;;;;;;136.03;32.23;;;;;;;;;;4922901;29;20609;-71
2024/01/23 05:00:20;;;;;;;132.83;31.23;;;;;;;;;;4919712;29;20287;-72
2024/01/23 05:02:45;;;;;;;200.57;34.50;;;;;;;;;;4939122;29;20248;-72
2024/01/23 05:05:10;;;;;;;179.20;34.93;;;;;;;;;;4922139;28;20602;-71
2024/01/23 05:07:36;;;;;;;147.33;32.70;;;;;;;;;;4923258;29;20247;-72
2024/01/23 05:10:04;;;;;;;159.97;32.93;;;;;;;;;;4916352;29;20240;-71
2024/01/23 05:12:29;;;;;;;150.73;33.63;;;;;;;;;;4917973;29;20431;-70
2024/01/23 05:14:54;;;;;;;143.20;30.53;;;;;;;;;;4919761;29;20771;-73
2024/01/23 05:17:20;;;;;;;150.67;34.87;;;;;;;;;;4917786;29;20226;-74
2024/01/23 05:19:45;;;;;;;133.73;30.83;;;;;;;;;;4940507;28;20229;-74
2024/01/23 05:22:10;;;;;;;147.37;31.90;;;;;;;;;;4919632;29;20241;-73
2024/01/23 05:24:36;;;;;;;142.57;32.40;;;;;;;;;;4937503;28;20749;-73
2024/01/23 05:27:01;;;;;;;151.13;32.80;;;;;;;;;;4919489;28;20813;-73
2024/01/23 05:29:26;;;;;;;141.10;31.43;;;;;;;;;;4935362;29;20237;-73
2024/01/23 05:31:52;;;;;;;156.47;32.70;;;;;;;;;;4916354;29;20236;-72
2024/01/23 05:34:17;;;;;;;132.43;30.27;;;;;;;;;;4903659;29;20222;-74
2024/01/23 05:36:43;;;;;;;137.10;31.50;;;;;;;;;;4902962;29;20296;-73
2024/01/23 05:39:08;;;;;;;158.73;33.07;;;;;;;;;;4933905;28;20224;-74
2024/01/23 05:41:34;;;;;;;153.20;33.47;;;;;;;;;;4902497;29;20328;-74
2024/01/23 05:43:59;;;;;;;150.43;33.20;;;;;;;;;;4907445;29;20232;-74
2024/01/23 05:46:25;;;;;;;159.50;34.13;;;;;;;;;;4911819;29;20233;-73
2024/01/23 05:48:50;;;;;;;153.30;32.83;;;;;;;;;;4904958;29;20707;-73
2024/01/23 05:51:15;;;;;;;180.00;34.77;;;;;;;;;;4913771;29;20233;-75
2024/01/23 05:53:41;;;;;;;165.40;34.73;;;;;;;;;;4918639;29;20228;-75
2024/01/23 05:56:06;;;;;;;166.90;34.17;;;;;;;;;;4929127;28;20238;-73
2024/01/23 05:58:32;;;;;;;170.43;35.20;;;;;;;;;;4928190;29;20232;-73
2024/01/23 06:00:57;;;;;;;173.57;35.87;;;;;;;;;;4912081;29;21025;-74
2024/01/23 06:03:23;;;;;;;161.00;34.93;;;;;;;;;;4934748;28;20244;-74
2024/01/23 06:05:48;;;;;;;196.23;36.50;;;;;;;;;;4936234;28;20238;-74
2024/01/23 06:08:13;;;;;;;175.50;34.60;;;;;;;;;;4913469;28;20292;-73
2024/01/23 06:10:39;;;;;;;189.43;36.57;;;;;;;;;;4920392;29;20702;-73
2024/01/23 06:13:04;;;;;;;167.50;35.73;;;;;;;;;;4919312;29;20259;-73
2024/01/23 06:15:31;;;;;;;170.67;35.73;;;;;;;;;;4920113;29;20237;-74
2024/01/23 06:17:56;;;;;;;180.03;36.43;;;;;;;;;;4919869;29;20745;-74
2024/01/23 06:20:21;;;;;;;151.23;33.97;;;;;;;;;;4919091;29;20240;-74
2024/01/23 06:22:47;;;;;;;167.90;36.53;;;;;;;;;;4919034;29;20726;-74
2024/01/23 06:25:15;;;;;;;144.87;33.00;;;;;;;;;;4911748;29;20234;-74
2024/01/23 06:27:44;;;;;;;154.60;34.27;;;;;;;;;;4904246;29;20696;-74
2024/01/23 06:30:11;;;;;;;154.93;36.07;;;;;;;;;;4910967;29;20256;-73
2024/01/23 06:32:40;;;;;;;158.70;36.70;;;;;;;;;;4933625;29;20225;-73
2024/01/23 06:35:05;;;;;;;148.43;34.70;;;;;;;;;;4911793;29;20319;-74
2024/01/23 06:37:31;;;;;;;144.90;36.27;;;;;;;;;;4904580;29;20680;-74
2024/01/23 06:39:56;;;;;;;136.00;34.80;;;;;;;;;;4918292;29;20677;-73
2024/01/23 06:42:21;;;;;;;133.00;33.80;;;;;;;;;;4916886;28;20248;-73
2024/01/23 06:44:47;;;;;;;146.23;37.43;;;;;;;;;;4904492;29;20292;-73
2024/01/23 06:47:12;;;;;;;143.90;37.03;;;;;;;;;;4919379;29;20231;-74
2024/01/23 06:49:37;;;;;;;156.50;38.57;;;;;;;;;;4928229;29;20260;-74
2024/01/23 06:52:03;;;;;;;153.67;38.47;;;;;;;;;;4935359;28;20225;-73
2024/01/23 06:54:29;;;;;;;142.60;36.73;;;;;;;;;;4918874;29;20244;-73
2024/01/23 06:56:54;;;;;;;136.80;36.27;;;;;;;;;;4911292;29;20252;-69
2024/01/23 06:59:19;;;;;;;150.40;36.40;;;;;;;;;;4934423;28;20240;-70
2024/01/23 07:01:45;;;;;;;138.53;36.57;;;;;;;;;;4916226;29;20265;-69
2024/01/23 07:04:10;;;;;;;151.60;38.93;;;;;;;;;;4921136;29;20257;-71
2024/01/23 07:06:36;;;;;;;158.67;39.77;;;;;;;;;;4917969;29;20627;-70
2024/01/23 07:09:01;;;;;;;156.73;39.03;;;;;;;;;;4922676;29;20224;-70
2024/01/23 07:11:27;;;;;;;144.50;38.60;;;;;;;;;;4906219;29;20291;-70
2024/01/23 07:13:53;;;;;;;154.67;41.33;;;;;;;;;;4910328;29;20303;-69
2024/01/23 07:16:19;;;;;;;154.00;39.57;;;;;;;;;;4938828;28;20726;-70
2024/01/23 07:18:44;;;;;;;167.57;42.43;;;;;;;;;;4935245;28;20308;-69
2024/01/23 07:21:09;;;;;;;141.63;37.30;;;;;;;;;;4917164;28;20249;-69
2024/01/23 07:23:35;;;;;;;153.70;39.83;;;;;;;;;;4916820;29;20222;-70
2024/01/23 07:26:01;;;;;;;153.23;37.87;;;;;;;;;;4917649;29;20228;-70
2024/01/23 07:28:26;;;;;;;151.50;40.10;;;;;;;;;;4918899;29;20245;-69
2024/01/23 07:30:52;;;;;;;153.17;41.30;;;;;;;;;;4919225;29;20232;-68
2024/01/23 07:33:17;;;;;;;164.90;43.60;;;;;;;;;;4904532;29;20236;-70
2024/01/23 07:35:42;;;;;;;146.60;40.10;;;;;;;;;;4921713;29;20957;-69
2024/01/23 07:38:11;;;;;;;159.60;43.27;;;;;;;;;;4905363;28;20703;-69
2024/01/23 07:40:39;;;;;;;148.47;37.60;;;;;;;;;;4917634;29;20257;-69
2024/01/23 07:43:05;;;;;;;173.47;45.13;;;;;;;;;;4935855;28;20725;-70
2024/01/23 07:45:30;;;;;;;189.97;48.40;;;;;;;;;;4936055;29;20241;-71
2024/01/23 07:47:56;;;;;;;183.27;46.37;;;;;;;;;;4936136;28;20694;-71
2024/01/23 07:50:21;;;;;;;174.47;46.87;;;;;;;;;;4920105;28;20357;-70
2024/01/23 07:52:46;;;;;;;191.67;51.37;;;;;;;;;;4912699;29;20233;-71
2024/01/23 07:55:12;;;;;;;178.77;49.70;;;;;;;;;;4935095;29;20229;-70
2024/01/23 07:57:37;;;;;;;178.73;45.83;;;;;;;;;;4918135;29;20225;-70
2024/01/23 08:00:03;;;;;;;200.37;51.60;;;;;;;;;;4927428;28;20225;-71
2024/01/23 08:02:29;;;;;;;187.53;49.37;;;;;;;;;;4907628;29;20229;-71
2024/01/23 08:04:54;;;;;;;202.10;50.53;;;;;;;;;;4921245;29;20299;-71
2024/01/23 08:07:19;;;;;;;197.03;51.30;;;;;;;;;;4919602;28;20244;-70
2024/01/23 08:09:45;;;;;;;201.73;51.77;;;;;;;;;;4907135;29;20234;-70
2024/01/23 08:12:10;;;;;;;204.87;52.60;;;;;;;;;;4917298;29;20221;-71
2024/01/23 08:14:36;;;;;;;183.73;50.83;;;;;;;;;;4935847;28;20604;-71
2024/01/23 08:17:01;;;;;;;186.63;50.07;;;;;;;;;;4936766;28;20939;-70
2024/01/23 08:19:27;;;;;;;192.00;48.70;;;;;;;;;;4923750;29;20655;-71
2024/01/23 08:21:52;;;;;;;181.10;47.80;;;;;;;;;;4939162;28;20257;-71
2024/01/23 08:24:17;;;;;;;188.70;51.20;;;;;;;;;;4938632;28;20295;-71
2024/01/23 08:26:43;;;;;;;188.83;48.00;;;;;;;;;;4919217;29;20257;-71
2024/01/23 08:29:08;;;;;;;184.07;51.57;;;;;;;;;;4918078;29;20305;-71
2024/01/23 08:31:33;;;;;;;193.97;50.87;;;;;;;;;;4922104;29;20235;-71
2024/01/23 08:33:59;;;;;;;192.87;51.20;;;;;;;;;;4940795;28;20236;-70
2024/01/23 08:36:24;;;;;;;204.27;51.67;;;;;;;;;;4921187;28;20231;-70
2024/01/23 08:38:50;;;;;;;189.80;49.93;;;;;;;;;;4942499;28;20858;-68
2024/01/23 08:41:15;;;;;;;183.37;46.30;;;;;;;;;;4922784;28;20245;-69
2024/01/23 08:43:40;;;;;;;200.33;53.97;;;;;;;;;;4924843;29;20229;-75
2024/01/23 08:46:05;;;;;;;206.37;54.10;;;;;;;;;;4918150;29;20698;-74
2024/01/23 08:48:31;;;;;;;195.00;52.40;;;;;;;;;;4911744;29;20305;-75
2024/01/23 08:50:57;;;;;;;196.27;52.90;;;;;;;;;;4939900;28;20248;-75
2024/01/23 08:53:22;;;;;;;212.03;54.93;;;;;;;;;;4904008;28;20311;-76
2024/01/23 08:55:47;;;;;;;195.53;51.33;;;;;;;;;;4932390;28;20237;-76
2024/01/23 08:58:19;;;;;;;196.70;52.73;;;;;;;;;;4920197;29;20251;-75
2024/01/23 09:00:44;;;;;;;192.60;49.00;;;;;;;;;;4917571;29;20240;-77
2024/01/23 09:03:09;;;;;;;179.27;51.90;;;;;;;;;;4896047;29;20221;-76
2024/01/23 09:05:35;;;;;;;205.70;51.97;;;;;;;;;;4919788;29;21218;-71
2024/01/23 09:08:01;;;;;;;201.17;51.80;;;;;;;;;;4907384;29;20220;-76
2024/01/23 09:10:27;;;;;;;185.13;51.67;;;;;;;;;;4908530;29;20260;-74
2024/01/23 09:12:52;;;;;;;202.33;54.50;;;;;;;;;;4938272;28;20234;-76
2024/01/23 09:15:18;;;;;;;216.23;57.03;;;;;;;;;;4925066;29;20603;-76
2024/01/23 09:17:43;;;;;;;214.00;54.33;;;;;;;;;;4917347;29;20233;-75
2024/01/23 09:20:09;;;;;;;208.97;53.80;;;;;;;;;;4920232;29;20620;-75
2024/01/23 09:22:34;;;;;;;198.07;55.70;;;;;;;;;;4936194;29;20233;-76
2024/01/23 09:25:02;;;;;;;217.40;57.03;;;;;;;;;;4909322;28;20231;-73
2024/01/23 09:27:28;;;;;;;220.60;57.00;;;;;;;;;;4937378;28;20237;-76
2024/01/23 09:29:53;;;;;;;198.37;53.83;;;;;;;;;;4918125;29;20238;-76
2024/01/23 09:32:18;;;;;;;199.73;49.70;;;;;;;;;;4924640;28;20224;-76
2024/01/23 09:34:44;;;;;;;212.20;55.63;;;;;;;;;;4935351;29;20233;-70
2024/01/23 09:37:10;;;;;;;200.13;53.00;;;;;;;;;;4936738;29;20228;-70
2024/01/23 09:39:35;;;;;;;206.80;57.43;;;;;;;;;;4919058;29;20237;-71
2024/01/23 09:42:02;;;;;;;206.43;53.10;;;;;;;;;;4916837;29;20729;-71
2024/01/23 09:44:27;;;;;;;222.30;58.93;;;;;;;;;;4927143;29;20736;-70
2024/01/23 09:46:52;;;;;;;207.97;56.33;;;;;;;;;;4923170;29;20229;-70
2024/01/23 09:49:18;;;;;;;221.17;59.53;;;;;;;;;;4907234;29;20240;-70
2024/01/23 09:51:46;;;;;;;192.93;50.77;;;;;;;;;;4920355;29;20257;-70
2024/01/23 09:54:12;;;;;;;197.03;53.03;;;;;;;;;;4910146;29;20322;-71
2024/01/23 09:56:39;;;;;;;206.40;53.80;;;;;;;;;;4925020;29;20731;-71
2024/01/23 09:59:05;;;;;;;198.53;48.90;;;;;;;;;;4944871;28;20221;-71
2024/01/23 10:01:30;;;;;;;195.40;53.87;;;;;;;;;;4938796;28;20332;-71
2024/01/23 10:03:57;;;;;;;213.40;53.53;;;;;;;;;;4917035;29;20276;-71
2024/01/23 10:06:23;;;;;;;212.90;53.63;;;;;;;;;;4921033;29;20237;-71
2024/01/23 10:08:48;;;;;;;202.93;53.80;;;;;;;;;;4924041;29;20225;-70
2024/01/23 10:11:14;;;;;;;202.97;51.07;;;;;;;;;;4941055;28;20248;-71
2024/01/23 10:13:41;;;;;;;207.90;54.40;;;;;;;;;;4925946;29;20245;-71
2024/01/23 10:16:06;;;;;;;206.10;52.53;;;;;;;;;;4924040;29;20235;-72
2024/01/23 10:18:32;;;;;;;206.00;55.17;;;;;;;;;;4926838;29;20297;-70
2024/01/23 10:20:58;;;;;;;202.03;52.50;;;;;;;;;;4915528;29;20316;-71
2024/01/23 10:23:23;;;;;;;208.87;53.23;;;;;;;;;;4919817;28;20793;-76
2024/01/23 10:25:48;;;;;;;219.30;55.57;;;;;;;;;;4925698;29;20239;-77
2024/01/23 10:28:15;;;;;;;208.40;53.73;;;;;;;;;;4919192;28;20250;-76
2024/01/23 10:30:40;;;;;;;216.70;56.33;;;;;;;;;;4919430;29;20798;-76
2024/01/23 10:33:06;;;;;;;211.93;54.67;;;;;;;;;;4915465;28;20229;-76
2024/01/23 10:35:33;;;;;;;231.47;59.97;;;;;;;;;;4917010;29;20689;-74
2024/01/23 10:37:59;;;;;;;234.03;55.60;;;;;;;;;;4919885;29;20229;-75
2024/01/23 10:40:24;;;;;;;253.00;63.30;;;;;;;;;;4908331;29;20260;-75
2024/01/23 10:42:50;;;;;;;232.17;62.00;;;;;;;;;;4919705;29;20759;-75
2024/01/23 10:45:16;;;;;;;233.67;59.23;;;;;;;;;;4904443;29;20773;-75
2024/01/23 10:47:42;;;;;;;257.27;60.23;;;;;;;;;;4908674;29;20598;-77
2024/01/23 10:50:07;;;;;;;227.83;56.57;;;;;;;;;;4915531;29;20248;-76
2024/01/23 10:52:34;;;;;;;252.83;64.97;;;;;;;;;;4918972;29;20341;-77
2024/01/23 10:54:59;;;;;;;236.90;64.17;;;;;;;;;;4907208;29;20249;-77
2024/01/23 10:57:25;;;;;;;242.10;64.30;;;;;;;;;;4904470;28;20221;-76
2024/01/23 10:59:50;;;;;;;248.47;64.07;;;;;;;;;;4916737;29;20228;-77
2024/01/23 11:02:15;;;;;;;235.27;59.90;;;;;;;;;;4935908;28;20378;-76
2024/01/23 11:04:41;;;;;;;232.73;60.70;;;;;;;;;;4937638;28;20785;-77
2024/01/23 11:07:10;;;;;;;239.20;61.93;;;;;;;;;;4902922;28;20733;-76
2024/01/23 11:09:39;;;;;;;239.17;58.77;;;;;;;;;;4911495;29;20228;-76
2024/01/23 11:12:12;;;;;;;234.57;61.00;;;;;;;;;;4896347;29;20618;-75
2024/01/23 11:14:46;;;;;;;230.77;57.60;;;;;;;;;;4915213;29;20237;-76
2024/01/23 11:17:13;;;;;;;231.40;59.20;;;;;;;;;;4903644;28;20328;-77
2024/01/23 11:19:42;;;;;;;219.87;58.30;;;;;;;;;;4904988;29;20740;-75
2024/01/23 11:22:08;;;;;;;227.60;59.50;;;;;;;;;;4909813;28;20701;-76
2024/01/23 11:24:40;;;;;;;217.47;58.07;;;;;;;;;;4903330;29;20233;-74
2024/01/23 11:27:05;;;;;;;215.77;57.80;;;;;;;;;;4907020;28;20236;-75
2024/01/23 11:29:31;;;;;;;219.37;58.57;;;;;;;;;;4906960;29;20276;-76
2024/01/23 11:31:56;;;;;;;218.23;56.37;;;;;;;;;;4936683;28;20232;-76
2024/01/23 11:34:25;;;;;;;207.13;55.93;;;;;;;;;;4919564;29;20235;-75
2024/01/23 11:36:50;;;;;;;203.90;55.00;;;;;;;;;;4934951;28;20227;-77
2024/01/23 11:39:16;;;;;;;210.27;55.37;;;;;;;;;;4932635;28;20252;-76
2024/01/23 11:41:50;;;;;;;217.93;58.20;;;;;;;;;;4905689;29;20236;-75
2024/01/23 11:44:16;;;;;;;226.93;59.17;;;;;;;;;;4910647;28;20235;-76
2024/01/23 11:46:41;;;;;;;209.13;57.13;;;;;;;;;;4905705;29;20224;-75
2024/01/23 11:49:07;;;;;;;244.97;60.97;;;;;;;;;;4930367;28;20253;-75
2024/01/23 11:51:35;;;;;;;181.03;50.73;;;;;;;;;;4916989;29;20222;-75
2024/01/23 11:54:00;;;;;;;160.40;45.90;;;;;;;;;;4903035;28;20791;-75
2024/01/23 11:56:28;;;;;;;155.57;46.30;;;;;;;;;;4914967;29;20308;-75
2024/01/23 11:58:56;;;;;;;156.80;45.97;;;;;;;;;;4922074;29;20769;-75
2024/01/23 12:01:21;;;;;;;159.37;46.10;;;;;;;;;;4920250;28;20232;-74
2024/01/23 12:03:47;;;;;;;165.40;47.20;;;;;;;;;;4915853;29;20221;-76
2024/01/23 12:06:13;;;;;;;150.43;44.90;;;;;;;;;;4916628;29;20229;-74
2024/01/23 12:08:39;;;;;;;150.37;46.70;;;;;;;;;;4907951;29;20221;-75
2024/01/23 12:11:04;;;;;;;154.77;46.47;;;;;;;;;;4929139;29;20335;-74
2024/01/23 12:13:29;;;;;;;161.30;49.13;;;;;;;;;;4913732;29;20736;-76
2024/01/23 12:15:56;;;;;;;159.50;49.90;;;;;;;;;;4916987;29;20320;-76
2024/01/23 12:18:22;;;;;;;169.93;50.50;;;;;;;;;;4917367;29;20342;-74
2024/01/23 12:20:48;;;;;;;165.20;50.73;;;;;;;;;;4906937;29;20320;-75
2024/01/23 12:23:14;;;;;;;171.03;51.83;;;;;;;;;;4933201;28;20315;-74
2024/01/23 12:25:40;;;;;;;175.37;51.73;;;;;;;;;;4919396;29;20678;-75
2024/01/23 12:28:05;;;;;;;182.77;52.37;;;;;;;;;;4938911;28;20399;-74
2024/01/23 12:30:30;;;;;;;169.80;52.20;;;;;;;;;;4920960;29;20726;-73
2024/01/23 12:32:57;;;;;;;169.03;52.17;;;;;;;;;;4905836;29;20695;-75
2024/01/23 12:35:22;;;;;;;164.97;52.47;;;;;;;;;;4928541;28;20244;-74
2024/01/23 12:37:50;;;;;;;173.13;53.03;;;;;;;;;;4919204;29;20287;-75
2024/01/23 12:40:16;;;;;;;167.93;51.27;;;;;;;;;;4906828;29;20239;-75
2024/01/23 12:42:46;;;;;;;170.77;52.37;;;;;;;;;;4919965;29;20311;-75
2024/01/23 12:45:12;;;;;;;175.90;54.20;;;;;;;;;;4918455;29;20324;-72
2024/01/23 12:47:37;;;;;;;182.77;55.40;;;;;;;;;;4904119;29;20231;-71
2024/01/23 12:50:06;;;;;;;169.83;53.63;;;;;;;;;;4936320;28;20244;-72
2024/01/23 12:52:31;;;;;;;176.80;55.57;;;;;;;;;;4908199;29;20225;-71
2024/01/23 12:54:56;;;;;;;172.30;54.30;;;;;;;;;;4914085;29;20598;-71
2024/01/23 12:57:22;;;;;;;170.00;53.60;;;;;;;;;;4919641;29;20328;-72
2024/01/23 12:59:48;;;;;;;170.60;53.93;;;;;;;;;;4908415;29;20253;-71
2024/01/23 13:02:13;;;;;;;163.93;54.70;;;;;;;;;;4905324;28;20241;-72
2024/01/23 13:04:39;;;;;;;168.47;53.87;;;;;;;;;;4921597;29;20229;-72
2024/01/23 13:07:04;;;;;;;179.97;56.83;;;;;;;;;;4916455;28;20625;-72
2024/01/23 13:09:29;;;;;;;179.77;56.67;;;;;;;;;;4911017;29;20307;-71
2024/01/23 13:11:55;;;;;;;181.03;57.10;;;;;;;;;;4940155;29;20384;-71
2024/01/23 13:17:07;;;;;;;174.23;55.47;;;;;;;;;;4923063;29;20283;-71
2024/01/23 13:19:33;;;;;;;186.67;59.47;;;;;;;;;;4920935;29;20552;-72
2024/01/23 13:21:58;;;;;;;180.07;55.93;;;;;;;;;;4922413;29;20244;-72
2024/01/23 13:24:23;;;;;;;192.40;59.97;;;;;;;;;;4939831;28;20233;-71
2024/01/23 13:26:49;;;;;;;196.70;58.70;;;;;;;;;;4923216;29;20237;-71
2024/01/23 13:29:14;;;;;;;197.03;62.57;;;;;;;;;;4906782;29;20253;-71
2024/01/23 13:31:40;;;;;;;191.30;59.97;;;;;;;;;;4923026;29;20229;-71
2024/01/23 13:34:07;;;;;;;190.23;59.57;;;;;;;;;;4914295;28;20228;-71
2024/01/23 13:36:33;;;;;;;196.03;60.67;;;;;;;;;;4924915;29;20466;-70
2024/01/23 13:38:58;;;;;;;188.00;57.50;;;;;;;;;;4940631;29;20309;-72
2024/01/23 13:41:24;;;;;;;182.93;58.80;;;;;;;;;;4937075;29;20470;-71
2024/01/23 13:43:49;;;;;;;189.50;57.80;;;;;;;;;;4911296;29;20728;-70
2024/01/23 13:46:15;;;;;;;185.67;58.47;;;;;;;;;;4909501;28;20319;-71
2024/01/23 13:48:40;;;;;;;188.20;58.87;;;;;;;;;;4936424;28;20214;-71
2024/01/23 13:51:05;;;;;;;176.10;53.97;;;;;;;;;;4920683;28;20276;-70
2024/01/23 13:53:31;;;;;;;177.93;54.80;;;;;;;;;;4910002;29;20240;-71
2024/01/23 13:55:56;;;;;;;181.93;55.20;;;;;;;;;;4918280;29;20285;-71
2024/01/23 13:58:22;;;;;;;178.63;54.47;;;;;;;;;;4919968;29;20615;-70